Time;durP1;ratioP1;P1;durP2;ratioP2;P2;SDS_P1;SDS_P2;PMS_P1;PMS_P2;Temp;Humidity;BMP_temperature;BMP_pressure;BME280_temperature;BME280_humidity;BME280_pressure;Samples;Min_cycle;Max_cycle;Signal;HPM_P1;HPM_P2
2023/05/29 00:00:17;;;;;;;4.67;2.13;;;14.90;99.90;;;;;;5134436;27;20170;-42
2023/05/29 00:02:44;;;;;;;3.20;2.20;;;14.90;99.90;;;;;;5134809;27;20543;-44
2023/05/29 00:05:11;;;;;;;4.53;2.33;;;14.80;99.90;;;;;;5134486;27;20182;-44
2023/05/29 00:07:37;;;;;;;8.23;2.20;;;14.80;99.90;;;;;;5134616;27;20185;-44
2023/05/29 00:10:04;;;;;;;5.80;2.33;;;14.80;99.90;;;;;;5134809;27;20376;-42
2023/05/29 00:12:29;;;;;;;5.00;2.20;;;14.70;99.90;;;;;;5134768;27;20192;-44
2023/05/29 00:14:55;;;;;;;6.93;2.40;;;14.70;99.90;;;;;;5134675;27;20197;-45
2023/05/29 00:17:21;;;;;;;3.70;2.07;;;14.70;99.90;;;;;;5134333;27;20215;-44
2023/05/29 00:19:47;;;;;;;5.47;2.47;;;14.60;99.90;;;;;;5134619;27;20234;-43
2023/05/29 00:22:12;;;;;;;4.77;2.37;;;14.60;99.90;;;;;;5134415;27;20177;-42
2023/05/29 00:24:38;;;;;;;4.47;2.50;;;14.50;99.90;;;;;;5134514;28;20266;-45
2023/05/29 00:27:04;;;;;;;4.90;2.37;;;14.50;99.90;;;;;;5134368;28;20584;-45
2023/05/29 00:29:30;;;;;;;5.40;2.33;;;14.40;99.90;;;;;;5134603;28;20652;-45
2023/05/29 00:31:56;;;;;;;6.67;2.50;;;14.40;99.90;;;;;;5134597;28;20188;-45
2023/05/29 00:34:23;;;;;;;3.47;2.03;;;14.40;99.90;;;;;;5115814;28;20221;-43
2023/05/29 00:36:49;;;;;;;8.77;2.53;;;14.40;99.90;;;;;;5134388;28;20733;-42
2023/05/29 00:39:15;;;;;;;4.23;2.27;;;14.30;99.90;;;;;;5134595;28;20177;-44
2023/05/29 00:41:40;;;;;;;4.30;2.60;;;14.30;99.90;;;;;;5134183;28;20169;-45
2023/05/29 00:44:06;;;;;;;5.37;2.50;;;14.20;99.90;;;;;;5134210;28;20193;-44
2023/05/29 00:46:33;;;;;;;4.10;2.33;;;14.20;99.90;;;;;;5134198;28;20174;-42
2023/05/29 00:49:00;;;;;;;3.93;2.30;;;14.10;99.90;;;;;;5134526;28;20170;-44
2023/05/29 00:51:27;;;;;;;4.23;2.20;;;14.10;99.90;;;;;;5134343;28;20185;-44
2023/05/29 00:53:53;;;;;;;6.63;2.33;;;14.00;99.90;;;;;;5134450;28;20190;-43
2023/05/29 00:56:20;;;;;;;5.23;2.60;;;14.00;99.90;;;;;;5134289;28;20699;-44
2023/05/29 00:58:50;;;;;;;5.73;2.53;;;14.00;99.90;;;;;;5134116;28;20174;-45
2023/05/29 01:01:18;;;;;;;7.70;2.70;;;13.90;99.90;;;;;;5134371;28;20523;-44
2023/05/29 01:03:45;;;;;;;5.00;2.87;;;13.90;99.90;;;;;;5115530;28;20741;-44
2023/05/29 01:06:11;;;;;;;5.07;2.67;;;13.80;99.90;;;;;;5134319;28;20206;-45
2023/05/29 01:08:36;;;;;;;4.57;2.43;;;13.80;99.90;;;;;;5134664;28;20178;-43
2023/05/29 01:11:24;;;;;;;5.23;2.80;;;13.80;99.90;;;;;;5134502;27;20185;-43
2023/05/29 01:13:52;;;;;;;5.23;2.90;;;13.70;99.90;;;;;;5137918;27;20194;-43
2023/05/29 01:16:30;;;;;;;4.93;2.80;;;13.70;99.90;;;;;;5137776;27;20189;-44
2023/05/29 01:19:08;;;;;;;7.37;2.83;;;13.60;99.90;;;;;;5137881;27;20666;-44
2023/05/29 01:21:59;;;;;;;4.77;3.07;;;13.50;99.90;;;;;;5138038;27;20245;-43
2023/05/29 01:24:36;;;;;;;5.73;3.03;;;13.50;99.90;;;;;;5137608;27;20219;-43
2023/05/29 01:27:08;;;;;;;7.83;2.97;;;13.40;99.90;;;;;;5137841;27;20162;-44
2023/05/29 01:29:34;;;;;;;7.07;3.07;;;13.30;99.90;;;;;;5137613;27;20177;-44
2023/05/29 01:32:01;;;;;;;4.33;2.57;;;13.30;99.90;;;;;;5137444;27;20180;-44
2023/05/29 01:34:27;;;;;;;5.40;2.63;;;13.20;99.90;;;;;;5137397;27;20257;-44
2023/05/29 01:36:53;;;;;;;3.57;2.80;;;13.10;99.90;;;;;;5137429;27;20241;-45
2023/05/29 01:39:21;;;;;;;6.07;3.30;;;13.00;99.90;;;;;;5137449;27;20213;-44
2023/05/29 01:41:47;;;;;;;3.90;2.57;;;13.00;99.90;;;;;;5137663;27;20181;-44
2023/05/29 01:44:13;;;;;;;5.93;3.00;;;12.90;99.90;;;;;;5137358;27;20201;-44
2023/05/29 01:46:41;;;;;;;4.30;2.67;;;12.90;99.90;;;;;;5137587;27;20177;-46
2023/05/29 01:49:07;;;;;;;9.80;3.00;;;12.80;99.90;;;;;;5137866;27;20170;-45
2023/05/29 01:51:33;;;;;;;5.67;2.50;;;12.70;99.90;;;;;;5137295;27;20183;-44
2023/05/29 01:54:00;;;;;;;5.30;2.47;;;12.70;99.90;;;;;;5137172;27;20225;-44
2023/05/29 01:56:27;;;;;;;7.00;3.03;;;12.60;99.90;;;;;;5137845;27;20201;-44
2023/05/29 01:58:54;;;;;;;5.63;3.10;;;12.60;99.90;;;;;;5137295;27;20230;-43
2023/05/29 02:01:22;;;;;;;5.67;3.10;;;12.50;99.90;;;;;;5137309;27;20206;-43
2023/05/29 02:03:48;;;;;;;9.57;3.10;;;12.50;99.90;;;;;;5137289;27;20526;-44
2023/05/29 02:06:13;;;;;;;5.30;3.47;;;12.50;99.90;;;;;;5137173;27;20242;-46
2023/05/29 02:08:39;;;;;;;5.27;3.10;;;12.40;99.90;;;;;;5137278;27;20182;-45
2023/05/29 02:11:04;;;;;;;5.87;3.40;;;12.40;99.90;;;;;;5137181;27;20177;-45
2023/05/29 02:13:31;;;;;;;6.30;3.50;;;12.40;99.90;;;;;;5136626;27;20208;-45
2023/05/29 02:15:56;;;;;;;4.60;3.10;;;12.40;99.90;;;;;;5136847;27;20250;-45
2023/05/29 02:18:22;;;;;;;5.27;3.37;;;12.30;99.90;;;;;;5118461;27;20170;-44
2023/05/29 02:20:47;;;;;;;6.23;3.87;;;12.30;99.90;;;;;;5136848;27;20167;-46
2023/05/29 02:23:15;;;;;;;5.57;3.50;;;12.30;99.90;;;;;;5137026;27;20196;-42
2023/05/29 02:25:41;;;;;;;12.40;4.60;;;12.20;99.90;;;;;;5136994;27;20324;-44
2023/05/29 02:28:06;;;;;;;7.87;3.97;;;12.10;99.90;;;;;;5136487;27;20664;-44
2023/05/29 02:30:32;;;;;;;7.23;3.40;;;12.20;99.90;;;;;;5136505;27;20174;-43
2023/05/29 02:32:58;;;;;;;5.97;3.17;;;12.10;99.90;;;;;;5136240;27;20205;-44
2023/05/29 02:35:23;;;;;;;7.90;3.40;;;12.10;99.90;;;;;;5136396;27;20182;-46
2023/05/29 02:37:50;;;;;;;6.10;3.57;;;12.00;99.90;;;;;;5136571;27;20208;-50
2023/05/29 02:40:17;;;;;;;8.30;3.70;;;12.00;99.90;;;;;;5136578;27;20170;-49
2023/05/29 02:42:42;;;;;;;5.63;3.20;;;12.00;99.90;;;;;;5136322;27;20180;-49
2023/05/29 02:45:08;;;;;;;5.40;3.40;;;11.90;99.90;;;;;;5136125;27;20633;-50
2023/05/29 02:47:34;;;;;;;7.30;2.87;;;11.90;99.90;;;;;;5136423;27;20169;-49
2023/05/29 02:50:00;;;;;;;6.67;2.90;;;11.80;99.90;;;;;;5136264;27;20173;-50
2023/05/29 02:52:27;;;;;;;7.77;3.10;;;11.80;99.90;;;;;;5135911;27;20180;-48
2023/05/29 02:54:54;;;;;;;6.97;3.00;;;11.80;99.90;;;;;;5136058;27;20205;-49
2023/05/29 02:57:20;;;;;;;7.47;3.40;;;11.70;99.90;;;;;;5136835;27;20197;-51
2023/05/29 02:59:45;;;;;;;8.57;3.57;;;11.70;99.90;;;;;;5136083;27;20169;-51
2023/05/29 03:02:11;;;;;;;6.77;2.87;;;11.70;99.90;;;;;;5135721;27;20672;-50
2023/05/29 03:04:37;;;;;;;6.90;3.40;;;11.60;99.90;;;;;;5135674;27;20189;-48
2023/05/29 03:07:03;;;;;;;8.53;3.40;;;11.60;99.90;;;;;;5135922;27;20178;-50
2023/05/29 03:09:28;;;;;;;10.83;3.40;;;11.50;99.90;;;;;;5135508;27;20174;-48
2023/05/29 03:11:54;;;;;;;10.40;3.50;;;11.50;99.90;;;;;;5136194;27;20535;-50
2023/05/29 03:14:21;;;;;;;12.03;3.27;;;11.50;99.90;;;;;;5117098;27;20669;-50
2023/05/29 03:16:47;;;;;;;8.10;3.73;;;11.40;99.90;;;;;;5135608;27;20618;-50
2023/05/29 03:19:13;;;;;;;7.27;3.03;;;11.40;99.90;;;;;;5135659;27;20603;-50
2023/05/29 03:21:38;;;;;;;6.83;2.90;;;11.40;99.90;;;;;;5135371;27;20227;-49
2023/05/29 03:24:04;;;;;;;8.80;3.40;;;11.30;99.90;;;;;;5135348;27;20300;-48
2023/05/29 03:26:30;;;;;;;5.90;2.60;;;11.30;99.90;;;;;;5135885;27;20169;-51
2023/05/29 03:28:55;;;;;;;9.70;3.50;;;11.30;99.90;;;;;;5135457;27;20546;-50
2023/05/29 03:31:21;;;;;;;7.23;3.17;;;11.20;99.90;;;;;;5135449;27;20184;-49
2023/05/29 03:33:48;;;;;;;11.03;3.67;;;11.20;99.90;;;;;;5134909;27;20224;-50
2023/05/29 03:36:13;;;;;;;10.60;3.30;;;11.20;99.90;;;;;;5134628;27;20560;-49
2023/05/29 03:38:39;;;;;;;10.67;3.13;;;11.20;99.90;;;;;;5135071;27;20174;-51
2023/05/29 03:41:05;;;;;;;12.90;3.63;;;11.10;99.90;;;;;;5135274;27;20299;-50
2023/05/29 03:43:30;;;;;;;8.73;2.93;;;11.20;99.90;;;;;;5134943;27;20201;-50
2023/05/29 03:45:56;;;;;;;7.73;2.83;;;11.10;99.90;;;;;;5116462;27;20188;-49
2023/05/29 03:48:22;;;;;;;7.83;2.60;;;11.10;99.90;;;;;;5135195;27;20192;-49
2023/05/29 03:50:47;;;;;;;9.70;2.90;;;11.10;99.90;;;;;;5135069;27;20669;-51
2023/05/29 03:53:13;;;;;;;9.47;3.47;;;11.10;99.90;;;;;;5135064;27;20280;-48
2023/05/29 03:55:38;;;;;;;7.00;2.70;;;11.10;99.90;;;;;;5134786;27;20667;-49
2023/05/29 03:58:04;;;;;;;7.43;2.90;;;11.10;99.90;;;;;;5134801;27;20184;-50
2023/05/29 04:00:30;;;;;;;7.23;2.50;;;11.10;99.90;;;;;;5135431;27;20177;-49
2023/05/29 04:02:56;;;;;;;14.53;3.17;;;11.10;99.90;;;;;;5116789;27;20197;-50
2023/05/29 04:05:22;;;;;;;9.57;2.50;;;11.10;99.90;;;;;;5134669;27;20234;-48
2023/05/29 04:07:47;;;;;;;7.60;2.40;;;11.10;99.90;;;;;;5134864;27;20193;-50
2023/05/29 04:10:13;;;;;;;8.47;2.43;;;11.10;99.90;;;;;;5135291;27;20182;-49
2023/05/29 04:12:39;;;;;;;11.30;2.63;;;11.10;99.90;;;;;;5134731;27;20181;-49
2023/05/29 04:15:05;;;;;;;10.33;2.97;;;11.10;99.90;;;;;;5134423;27;20251;-48
2023/05/29 04:17:31;;;;;;;7.80;2.87;;;11.00;99.90;;;;;;5134369;27;20696;-51
2023/05/29 04:19:57;;;;;;;8.57;2.53;;;11.10;99.90;;;;;;5134715;27;20174;-49
2023/05/29 04:22:22;;;;;;;9.13;2.57;;;11.10;99.90;;;;;;5134457;27;20621;-49
2023/05/29 04:24:48;;;;;;;10.90;2.70;;;11.10;99.90;;;;;;5134451;27;20557;-48
2023/05/29 04:27:14;;;;;;;11.80;3.07;;;11.10;99.90;;;;;;5134684;28;20174;-50
2023/05/29 04:29:42;;;;;;;8.17;2.53;;;11.10;99.90;;;;;;5134817;28;20205;-48
2023/05/29 04:32:09;;;;;;;11.57;2.07;;;11.10;99.90;;;;;;5135053;28;20205;-49
2023/05/29 04:34:35;;;;;;;10.87;2.60;;;11.10;99.90;;;;;;5136064;28;20205;-50
2023/05/29 04:37:03;;;;;;;7.00;2.60;;;11.20;99.90;;;;;;5134711;28;20251;-49
2023/05/29 04:39:29;;;;;;;10.93;2.93;;;11.10;99.90;;;;;;5134493;28;20181;-50
2023/05/29 04:41:58;;;;;;;6.57;2.67;;;11.20;99.90;;;;;;5134936;28;20248;-51
2023/05/29 04:44:26;;;;;;;10.07;3.03;;;11.20;99.90;;;;;;5134640;28;20277;-49
2023/05/29 04:46:52;;;;;;;10.57;2.70;;;11.20;99.90;;;;;;5136950;27;20185;-49
2023/05/29 04:49:18;;;;;;;6.17;2.03;;;11.30;99.90;;;;;;5140320;27;20181;-49
2023/05/29 04:51:44;;;;;;;8.13;2.97;;;11.20;99.90;;;;;;5139387;27;20189;-49
2023/05/29 04:54:11;;;;;;;8.90;2.47;;;11.30;99.90;;;;;;5138633;27;20226;-49
2023/05/29 04:56:39;;;;;;;9.93;3.13;;;11.30;99.90;;;;;;5138514;27;20193;-49
2023/05/29 04:59:06;;;;;;;15.43;3.27;;;11.30;99.90;;;;;;5138575;27;20180;-49
2023/05/29 05:01:33;;;;;;;7.63;2.67;;;11.40;99.90;;;;;;5138561;27;20240;-48
2023/05/29 05:03:59;;;;;;;12.70;3.37;;;11.40;99.90;;;;;;5138207;27;20201;-46
2023/05/29 05:06:25;;;;;;;11.47;3.10;;;11.40;99.90;;;;;;5138298;27;20169;-47
2023/05/29 05:08:51;;;;;;;13.73;3.63;;;11.40;99.90;;;;;;5138246;27;20193;-48
2023/05/29 05:11:21;;;;;;;12.00;3.07;;;11.50;99.90;;;;;;5137946;27;20170;-49
2023/05/29 05:13:47;;;;;;;12.20;3.03;;;11.50;99.90;;;;;;5138083;27;20212;-47
2023/05/29 05:16:12;;;;;;;16.17;3.13;;;11.50;99.90;;;;;;5138199;27;20193;-48
2023/05/29 05:18:38;;;;;;;12.33;3.10;;;11.50;99.90;;;;;;5137747;27;20539;-49
2023/05/29 05:21:04;;;;;;;13.53;2.83;;;11.60;99.90;;;;;;5138109;27;20558;-46
2023/05/29 05:23:30;;;;;;;11.37;2.90;;;11.60;99.90;;;;;;5138926;27;20204;-50
2023/05/29 05:25:55;;;;;;;14.47;3.50;;;11.60;99.90;;;;;;5138067;27;20673;-47
2023/05/29 05:28:21;;;;;;;12.43;3.23;;;11.60;99.90;;;;;;5137430;27;20185;-48
2023/05/29 05:30:47;;;;;;;12.37;2.93;;;11.60;99.90;;;;;;5137662;27;20169;-48
2023/05/29 05:33:13;;;;;;;7.70;2.73;;;11.60;99.90;;;;;;5137263;27;20224;-48
2023/05/29 05:35:38;;;;;;;13.70;3.40;;;11.70;99.90;;;;;;5137665;27;20669;-50
2023/05/29 05:38:04;;;;;;;15.70;2.93;;;11.80;99.90;;;;;;5120479;27;20560;-50
2023/05/29 05:40:30;;;;;;;10.80;3.20;;;11.80;99.90;;;;;;5137369;27;20161;-50
2023/05/29 05:42:55;;;;;;;8.83;2.77;;;11.80;99.90;;;;;;5137714;27;20205;-49
2023/05/29 05:45:21;;;;;;;13.27;2.77;;;11.80;99.90;;;;;;5137513;27;20176;-49
2023/05/29 05:47:47;;;;;;;15.13;3.63;;;11.90;99.90;;;;;;5137213;27;20699;-50
2023/05/29 05:50:13;;;;;;;11.83;3.27;;;11.90;99.90;;;;;;5137475;27;20226;-49
2023/05/29 05:52:39;;;;;;;7.10;2.77;;;12.00;99.90;;;;;;5137003;27;20173;-49
2023/05/29 05:55:05;;;;;;;10.50;2.80;;;12.00;99.90;;;;;;5137385;27;20173;-49
2023/05/29 05:57:32;;;;;;;12.13;2.70;;;12.00;99.90;;;;;;5136602;27;20692;-51
2023/05/29 06:00:12;;;;;;;8.60;2.40;;;12.10;99.90;;;;;;5137244;27;20173;-48
2023/05/29 06:02:42;;;;;;;13.97;3.00;;;12.10;99.90;;;;;;5136897;27;20610;-49
2023/05/29 06:05:09;;;;;;;11.13;2.77;;;12.20;99.90;;;;;;5136938;27;20538;-50
2023/05/29 06:07:35;;;;;;;11.93;3.17;;;12.20;99.90;;;;;;5137217;27;20174;-49
2023/05/29 06:10:01;;;;;;;7.47;2.27;;;12.30;99.90;;;;;;5137174;27;20203;-51
2023/05/29 06:12:27;;;;;;;11.50;2.90;;;12.50;99.90;;;;;;5136782;27;20536;-50
2023/05/29 06:14:53;;;;;;;8.70;3.07;;;12.60;99.90;;;;;;5136576;27;20222;-50
2023/05/29 06:17:18;;;;;;;13.17;2.60;;;12.60;99.90;;;;;;5136559;27;20226;-49
2023/05/29 06:19:44;;;;;;;12.97;3.63;;;12.60;99.90;;;;;;5136493;27;20285;-50
2023/05/29 06:22:09;;;;;;;12.43;2.83;;;12.70;99.90;;;;;;5136641;27;20173;-51
2023/05/29 06:24:35;;;;;;;12.73;2.93;;;12.80;99.90;;;;;;5136736;27;20197;-50
2023/05/29 06:27:01;;;;;;;6.80;2.20;;;12.90;99.90;;;;;;5136969;27;20260;-50
2023/05/29 06:29:27;;;;;;;13.53;3.07;;;13.10;99.90;;;;;;5136379;27;20174;-50
2023/05/29 06:31:52;;;;;;;10.07;2.50;;;13.20;99.90;;;;;;5136325;27;20214;-50
2023/05/29 06:34:18;;;;;;;11.23;2.50;;;13.20;99.90;;;;;;5136273;27;20209;-48
2023/05/29 06:36:43;;;;;;;9.70;3.00;;;13.30;99.90;;;;;;5136215;27;20275;-50
2023/05/29 06:39:10;;;;;;;15.70;3.03;;;13.30;99.90;;;;;;5136565;27;20203;-49
2023/05/29 06:41:36;;;;;;;12.70;2.90;;;13.40;99.90;;;;;;5136141;27;20206;-49
2023/05/29 06:44:01;;;;;;;8.83;2.40;;;13.50;99.90;;;;;;5136385;27;20190;-51
2023/05/29 06:46:27;;;;;;;7.80;2.50;;;13.50;99.90;;;;;;5136639;27;20178;-50
2023/05/29 06:48:52;;;;;;;8.00;2.40;;;13.50;99.90;;;;;;5136002;27;20174;-51
2023/05/29 06:51:18;;;;;;;11.47;3.50;;;13.60;99.90;;;;;;5136212;27;20173;-50
2023/05/29 06:53:44;;;;;;;10.17;2.97;;;13.60;99.90;;;;;;5135898;27;20197;-51
2023/05/29 06:56:10;;;;;;;12.03;2.93;;;13.60;99.90;;;;;;5136041;27;20204;-52
2023/05/29 06:58:35;;;;;;;9.43;2.53;;;13.70;99.90;;;;;;5135835;27;20169;-50
2023/05/29 07:01:01;;;;;;;12.17;3.03;;;13.80;99.90;;;;;;5117333;27;20173;-51
2023/05/29 07:03:27;;;;;;;18.43;3.33;;;13.90;99.90;;;;;;5135961;27;20226;-51
2023/05/29 07:05:53;;;;;;;11.93;2.87;;;14.00;99.90;;;;;;5135924;27;20530;-51
2023/05/29 07:08:18;;;;;;;9.77;2.87;;;14.10;99.90;;;;;;5135884;27;20633;-51
2023/05/29 07:10:44;;;;;;;11.07;2.60;;;14.20;99.90;;;;;;5134755;27;20177;-51
2023/05/29 07:13:10;;;;;;;8.97;2.73;;;14.20;99.90;;;;;;5135676;27;20189;-51
2023/05/29 07:15:37;;;;;;;8.37;2.40;;;14.30;99.90;;;;;;5135722;27;20170;-50
2023/05/29 07:18:03;;;;;;;8.87;2.80;;;14.50;99.90;;;;;;5135534;27;20176;-51
2023/05/29 07:20:28;;;;;;;8.83;2.53;;;14.60;99.90;;;;;;5135681;27;20170;-51
2023/05/29 07:22:54;;;;;;;10.90;2.73;;;14.70;99.90;;;;;;5135376;27;22352;-52
2023/05/29 07:25:20;;;;;;;8.93;3.03;;;14.70;99.90;;;;;;5135613;27;20176;-50
2023/05/29 07:27:45;;;;;;;7.93;2.63;;;14.60;99.90;;;;;;5135256;27;20177;-51
2023/05/29 07:30:12;;;;;;;9.30;3.00;;;14.80;99.90;;;;;;5135286;27;20543;-51
2023/05/29 07:32:37;;;;;;;9.53;2.57;;;14.90;99.90;;;;;;5135082;27;20287;-44
2023/05/29 07:35:03;;;;;;;13.17;3.43;;;15.00;99.90;;;;;;5135913;27;20299;-46
2023/05/29 07:37:30;;;;;;;9.00;3.07;;;15.00;99.90;;;;;;5116596;27;20209;-45
2023/05/29 07:39:55;;;;;;;9.60;2.77;;;15.10;99.90;;;;;;5135295;27;20188;-44
2023/05/29 07:42:21;;;;;;;9.00;2.80;;;15.10;99.90;;;;;;5135317;27;20170;-44
2023/05/29 07:44:47;;;;;;;10.60;2.93;;;15.10;99.90;;;;;;5117224;27;20278;-46
2023/05/29 07:47:13;;;;;;;10.17;3.53;;;15.20;99.90;;;;;;5134902;27;20519;-46
2023/05/29 07:49:39;;;;;;;10.97;3.53;;;15.20;99.90;;;;;;5134826;27;20177;-46
2023/05/29 07:52:05;;;;;;;9.30;2.90;;;15.20;99.90;;;;;;5134839;27;20173;-46
2023/05/29 07:54:32;;;;;;;15.60;4.37;;;15.20;99.90;;;;;;5135256;27;20204;-46
2023/05/29 07:56:59;;;;;;;11.50;3.43;;;15.30;99.90;;;;;;5134926;27;20228;-46
2023/05/29 07:59:25;;;;;;;9.90;2.93;;;15.30;99.90;;;;;;5135391;27;20653;-46
2023/05/29 08:01:50;;;;;;;10.03;3.27;;;15.40;99.90;;;;;;5134713;27;20213;-45
2023/05/29 08:04:16;;;;;;;10.23;3.30;;;15.50;99.90;;;;;;5134621;27;20582;-47
2023/05/29 08:06:43;;;;;;;13.37;3.47;;;15.50;99.90;;;;;;5135194;27;20209;-45
2023/05/29 08:09:09;;;;;;;8.43;3.37;;;15.60;99.90;;;;;;5135158;27;20185;-46
2023/05/29 08:11:36;;;;;;;9.47;2.73;;;15.80;99.90;;;;;;5134762;27;20586;-45
2023/05/29 08:14:02;;;;;;;10.67;3.37;;;15.80;99.90;;;;;;5134476;27;20249;-44
2023/05/29 08:16:27;;;;;;;10.13;3.43;;;15.80;99.90;;;;;;5134865;27;20205;-46
2023/05/29 08:18:53;;;;;;;10.57;3.10;;;16.00;99.90;;;;;;5134832;27;20184;-44
2023/05/29 08:21:19;;;;;;;9.60;3.50;;;16.20;99.90;;;;;;5134365;27;20230;-46
2023/05/29 08:23:45;;;;;;;11.63;4.03;;;16.20;99.90;;;;;;5134603;27;20205;-47
2023/05/29 08:26:10;;;;;;;11.60;3.80;;;16.40;99.90;;;;;;5134364;27;20241;-46
2023/05/29 08:28:36;;;;;;;10.53;4.43;;;16.50;99.90;;;;;;5134494;28;20173;-47
2023/05/29 08:31:02;;;;;;;14.53;4.50;;;16.60;99.90;;;;;;5134625;28;20614;-46
2023/05/29 08:33:27;;;;;;;16.60;5.00;;;16.70;99.90;;;;;;5134383;28;20224;-47
2023/05/29 08:35:53;;;;;;;14.60;4.77;;;16.70;99.90;;;;;;5115956;28;20641;-46
2023/05/29 08:38:20;;;;;;;13.40;4.23;;;16.60;99.90;;;;;;5134333;28;20253;-45
2023/05/29 08:40:47;;;;;;;11.37;3.57;;;16.60;99.90;;;;;;5134532;28;20181;-46
2023/05/29 08:43:17;;;;;;;12.50;3.67;;;16.60;99.90;;;;;;5134478;28;20197;-45
2023/05/29 08:45:44;;;;;;;10.23;3.20;;;16.60;99.90;;;;;;5134298;28;20222;-45
2023/05/29 08:48:11;;;;;;;9.57;3.60;;;16.70;99.90;;;;;;5134244;28;20264;-45
2023/05/29 08:50:46;;;;;;;10.97;3.17;;;16.70;99.90;;;;;;5134433;28;20269;-46
2023/05/29 08:53:15;;;;;;;9.90;2.90;;;16.90;99.90;;;;;;5134480;28;20205;-48
2023/05/29 08:55:41;;;;;;;9.83;3.47;;;16.90;99.90;;;;;;5134171;28;20574;-46
2023/05/29 08:58:08;;;;;;;10.43;3.13;;;16.90;99.90;;;;;;5134305;28;20158;-47
2023/05/29 09:00:34;;;;;;;10.90;3.47;;;17.00;99.90;;;;;;5134634;28;20222;-45
2023/05/29 09:02:59;;;;;;;12.03;3.33;;;17.00;99.90;;;;;;5134371;28;20284;-46
2023/05/29 09:05:29;;;;;;;10.63;3.00;;;17.00;99.90;;;;;;5134090;28;20657;-45
2023/05/29 09:07:55;;;;;;;12.43;3.33;;;17.00;99.90;;;;;;5134071;28;20264;-46
2023/05/29 09:10:22;;;;;;;8.53;3.13;;;17.10;99.90;;;;;;5134117;28;20205;-47
2023/05/29 09:12:50;;;;;;;10.17;3.33;;;17.10;99.90;;;;;;5134282;28;20264;-46
2023/05/29 09:15:22;;;;;;;10.53;3.80;;;17.20;99.90;;;;;;5133982;28;20653;-47
2023/05/29 09:17:52;;;;;;;8.67;3.17;;;17.20;99.90;;;;;;5134075;28;20200;-45
2023/05/29 09:20:18;;;;;;;17.27;3.50;;;17.30;99.90;;;;;;5133904;28;20223;-46
2023/05/29 09:23:02;;;;;;;11.47;3.50;;;17.50;99.90;;;;;;5134397;28;20170;-46
2023/05/29 09:25:30;;;;;;;15.13;3.50;;;17.70;99.90;;;;;;5133885;28;20638;-46
2023/05/29 09:28:07;;;;;;;12.03;3.40;;;17.60;99.90;;;;;;5133896;28;20557;-46
2023/05/29 09:30:32;;;;;;;11.43;3.23;;;17.50;99.90;;;;;;5134057;28;20169;-46
2023/05/29 09:33:01;;;;;;;10.03;3.47;;;17.60;99.90;;;;;;5134941;27;20685;-46
2023/05/29 09:35:40;;;;;;;12.43;3.53;;;17.70;99.90;;;;;;5137843;27;20174;-46
2023/05/29 09:38:07;;;;;;;12.67;2.87;;;17.70;99.90;;;;;;5137869;27;20531;-46
2023/05/29 09:40:36;;;;;;;9.13;4.03;;;17.70;99.90;;;;;;5137739;27;20181;-47
2023/05/29 09:43:10;;;;;;;12.27;3.63;;;17.70;99.90;;;;;;5137642;27;20284;-47
2023/05/29 09:45:43;;;;;;;8.13;3.13;;;17.70;99.90;;;;;;5137216;27;20154;-46
2023/05/29 09:48:18;;;;;;;13.73;3.37;;;17.80;99.90;;;;;;5137747;27;20191;-47
2023/05/29 09:50:47;;;;;;;12.33;3.40;;;17.80;99.90;;;;;;5137569;27;20184;-46
2023/05/29 09:53:31;;;;;;;20.97;3.87;;;17.90;99.90;;;;;;5137284;27;20220;-46
2023/05/29 09:55:59;;;;;;;8.00;2.60;;;18.00;99.90;;;;;;5137347;27;20177;-46
2023/05/29 09:58:25;;;;;;;8.03;2.73;;;18.10;99.90;;;;;;5137910;27;20170;-47
2023/05/29 10:00:51;;;;;;;11.47;3.73;;;18.20;99.90;;;;;;5118614;27;20209;-46
2023/05/29 10:03:19;;;;;;;8.77;3.03;;;18.20;99.90;;;;;;5136802;27;20668;-46
2023/05/29 10:05:50;;;;;;;7.27;2.97;;;18.20;99.90;;;;;;5136882;27;20547;-46
2023/05/29 10:08:18;;;;;;;9.80;3.63;;;18.10;99.90;;;;;;5136971;27;20565;-47
2023/05/29 10:10:47;;;;;;;14.93;3.60;;;18.10;99.90;;;;;;5136943;27;20179;-46
2023/05/29 10:13:14;;;;;;;10.37;2.93;;;18.10;99.90;;;;;;5136829;27;20221;-46
2023/05/29 10:15:45;;;;;;;11.93;3.07;;;18.20;99.90;;;;;;5136785;27;20224;-46
2023/05/29 10:18:59;;;;;;;10.03;3.43;;;18.30;99.90;;;;;;5136730;27;20181;-46
2023/05/29 10:21:28;;;;;;;9.67;2.90;;;18.40;99.90;;;;;;5136453;27;20181;-47
2023/05/29 10:23:55;;;;;;;9.23;2.90;;;18.50;99.90;;;;;;5136413;27;20599;-47
2023/05/29 10:26:26;;;;;;;10.43;3.33;;;18.70;99.90;;;;;;5136729;27;20186;-45
2023/05/29 10:29:17;;;;;;;9.03;2.90;;;18.60;99.90;;;;;;5117857;27;20177;-47
2023/05/29 10:32:07;;;;;;;10.23;2.87;;;18.50;99.90;;;;;;5136560;27;20219;-46
2023/05/29 10:34:59;;;;;;;9.80;2.80;;;18.60;99.90;;;;;;5136758;27;20228;-48
2023/05/29 10:37:35;;;;;;;10.03;2.93;;;18.70;99.90;;;;;;5136488;27;20278;-46
2023/05/29 10:40:12;;;;;;;11.80;3.57;;;18.60;99.90;;;;;;5136579;27;20166;-48
2023/05/29 10:42:54;;;;;;;13.10;4.07;;;18.70;99.90;;;;;;5136094;27;20614;-48
2023/05/29 10:45:40;;;;;;;9.70;3.20;;;18.70;99.90;;;;;;5134830;27;20626;-47
2023/05/29 10:48:11;;;;;;;10.63;2.97;;;18.70;99.90;;;;;;5125136;27;20609;-47
2023/05/29 10:50:46;;;;;;;9.93;3.33;;;18.80;99.90;;;;;;5117622;27;20216;-47
2023/05/29 10:53:23;;;;;;;9.97;3.37;;;18.90;99.90;;;;;;5135998;27;20193;-46
2023/05/29 10:55:50;;;;;;;11.93;3.60;;;18.90;99.90;;;;;;5136323;27;20232;-47
2023/05/29 10:58:24;;;;;;;9.30;3.17;;;18.90;99.90;;;;;;5136174;27;20546;-46
2023/05/29 11:00:56;;;;;;;9.60;3.23;;;19.00;99.90;;;;;;5136185;27;20165;-47
2023/05/29 11:03:31;;;;;;;11.03;3.17;;;19.10;99.90;;;;;;5135976;27;20190;-46
2023/05/29 11:06:13;;;;;;;9.63;3.30;;;19.20;99.90;;;;;;5135630;27;20641;-47
2023/05/29 11:08:45;;;;;;;10.67;3.77;;;19.20;99.90;;;;;;5135961;27;20165;-48
2023/05/29 11:11:15;;;;;;;14.47;3.50;;;19.30;99.90;;;;;;5135947;27;20176;-47
2023/05/29 11:13:51;;;;;;;11.23;3.53;;;19.40;99.90;;;;;;5135417;27;20193;-48
2023/05/29 11:16:28;;;;;;;11.30;3.50;;;19.40;99.90;;;;;;5135840;27;20559;-47
2023/05/29 11:18:54;;;;;;;8.83;3.40;;;19.50;99.90;;;;;;5135749;27;20177;-48
2023/05/29 11:21:38;;;;;;;13.03;4.13;;;19.40;99.90;;;;;;5135805;27;20539;-46
2023/05/29 11:24:06;;;;;;;12.00;3.60;;;19.40;99.90;;;;;;5135848;27;20198;-47
2023/05/29 11:26:33;;;;;;;8.67;2.90;;;19.50;99.90;;;;;;5135479;27;20177;-46
2023/05/29 11:29:01;;;;;;;9.23;3.57;;;19.70;99.90;;;;;;5135339;27;20257;-48
2023/05/29 11:31:31;;;;;;;7.57;3.20;;;19.70;99.90;;;;;;5135202;27;20181;-47
2023/05/29 11:33:59;;;;;;;10.87;3.40;;;19.80;99.90;;;;;;5135131;27;20692;-47
2023/05/29 11:36:26;;;;;;;9.70;3.10;;;19.90;99.90;;;;;;5116750;27;20204;-47
2023/05/29 11:38:52;;;;;;;10.33;3.57;;;19.90;99.90;;;;;;5135404;27;20165;-47
2023/05/29 11:41:18;;;;;;;10.47;3.47;;;19.90;99.90;;;;;;5135319;27;20191;-47
2023/05/29 11:43:43;;;;;;;7.47;2.97;;;20.00;99.90;;;;;;5134961;27;20204;-48
2023/05/29 11:46:17;;;;;;;7.73;3.37;;;20.00;99.90;;;;;;5134999;27;20540;-46
2023/05/29 11:48:47;;;;;;;6.73;2.87;;;19.90;99.90;;;;;;5135217;27;20161;-46
2023/05/29 11:51:13;;;;;;;6.47;2.57;;;20.00;99.90;;;;;;5134913;27;20177;-47
2023/05/29 11:53:43;;;;;;;13.03;3.20;;;20.20;99.90;;;;;;5135002;27;20204;-47
2023/05/29 11:56:12;;;;;;;9.07;3.20;;;20.30;99.90;;;;;;5134291;27;20201;-46
2023/05/29 11:58:38;;;;;;;9.87;3.07;;;20.40;99.90;;;;;;5136563;27;20176;-49
2023/05/29 12:01:05;;;;;;;10.67;3.00;;;20.20;99.90;;;;;;5135701;27;20213;-47
2023/05/29 12:03:37;;;;;;;8.87;2.83;;;20.20;99.90;;;;;;5134802;27;20205;-48
2023/05/29 12:06:03;;;;;;;11.87;3.13;;;20.30;99.90;;;;;;5134911;27;20170;-49
2023/05/29 12:08:29;;;;;;;6.83;2.63;;;20.40;99.90;;;;;;5134575;27;20182;-47
2023/05/29 12:10:54;;;;;;;10.53;3.17;;;20.50;99.90;;;;;;5134854;27;20177;-47
2023/05/29 12:13:21;;;;;;;10.77;3.30;;;20.60;99.90;;;;;;5134785;27;20190;-46
2023/05/29 12:15:49;;;;;;;11.40;3.63;;;20.70;99.90;;;;;;5134771;27;20166;-46
2023/05/29 12:18:15;;;;;;;9.43;3.50;;;20.80;99.90;;;;;;5134598;27;20177;-46
2023/05/29 12:20:41;;;;;;;12.13;3.47;;;20.80;99.90;;;;;;5134705;27;20242;-47
2023/05/29 12:23:06;;;;;;;7.83;2.90;;;20.90;99.90;;;;;;5134302;27;20604;-47
2023/05/29 12:25:36;;;;;;;8.93;3.17;;;20.80;99.90;;;;;;5134549;27;20184;-48
2023/05/29 12:28:02;;;;;;;9.10;3.43;;;20.70;99.90;;;;;;5134544;27;20185;-48
2023/05/29 12:30:28;;;;;;;10.30;3.30;;;20.80;99.90;;;;;;5134467;27;20178;-47
2023/05/29 12:32:54;;;;;;;7.07;2.87;;;20.80;99.90;;;;;;5134165;27;20242;-47
2023/05/29 12:35:28;;;;;;;9.07;2.97;;;20.90;99.90;;;;;;5134231;28;20170;-46
2023/05/29 12:37:58;;;;;;;9.60;3.60;;;20.90;99.90;;;;;;5134324;28;20601;-47
2023/05/29 12:40:28;;;;;;;7.73;2.83;;;21.00;99.90;;;;;;5134439;28;20195;-47
2023/05/29 12:42:59;;;;;;;7.20;2.70;;;21.00;99.90;;;;;;5134696;28;20162;-47
2023/05/29 12:45:26;;;;;;;10.77;2.93;;;21.10;99.90;;;;;;5134514;28;20158;-46